KDEC/DEC METAR and TAF weather

Enter ICAO airport designator
Station Type Date Time Source
KDEC METAR 2021/04/13 20:54 UTC NOAA

KDEC 132054Z 27011G20KT 10SM CLR 16/01 A3011 RMK AO2 SLP197 T01610011 58020


Station Type Date Time Source
KDEC Decoded METAR 2021/04/13 20:54 UTC NOAA

DECATUR AIRPORT, IL, United States (KDEC) 39-50N 88-52W 207M
Apr 13, 2021 - 04:54 PM EDT / 2021.04.13 2054 UTC
Wind: from the W (270 degrees) at 13 MPH (11 KT) gusting to 23 MPH (20 KT):0
Visibility: 10 mile(s):0
Sky conditions: clear
Temperature: 61.0 F (16.1 C)
Dew Point: 34.0 F (1.1 C)
Relative Humidity: 36%
Pressure (altimeter): 30.11 in. Hg (1019 hPa)
Pressure tendency: 0.06 inches (2.0 hPa) lower than three hours ago
ob: KDEC 132054Z 27011G20KT 10SM CLR 16/01 A3011 RMK AO2 SLP197 T01610011 58020
cycle: 21

Station Type Date Time Source
KDEC TAF 2021/04/13 18:39 UTC NOAA

TAF KDEC 131737Z 1318/1418 27012G19KT P6SM SKC
FM140000 28005KT P6SM SCT250
FM141500 29011KT P6SM SKC

Example: see airport list